sensor_id;sensor_type;location;lat;lon;timestamp;P1;durP1;ratioP1;P2;durP2;ratioP2
20181;SDS011;10250;50.756;6.172;2023-02-15T00:01:22;25.60;;;7.90;;
20181;SDS011;10250;50.756;6.172;2023-02-15T00:03:23;21.83;;;7.63;;
20181;SDS011;10250;50.756;6.172;2023-02-15T00:05:24;20.83;;;7.80;;
20181;SDS011;10250;50.756;6.172;2023-02-15T00:07:25;24.60;;;7.30;;
20181;SDS011;10250;50.756;6.172;2023-02-15T00:09:26;21.33;;;7.33;;
20181;SDS011;10250;50.756;6.172;2023-02-15T00:11:27;22.30;;;6.83;;
20181;SDS011;10250;50.756;6.172;2023-02-15T00:13:40;21.43;;;6.93;;
20181;SDS011;10250;50.756;6.172;2023-02-15T00:15:41;23.47;;;7.83;;
20181;SDS011;10250;50.756;6.172;2023-02-15T00:17:42;19.67;;;7.47;;
20181;SDS011;10250;50.756;6.172;2023-02-15T00:19:43;19.90;;;6.63;;
20181;SDS011;10250;50.756;6.172;2023-02-15T00:21:44;19.90;;;7.50;;
20181;SDS011;10250;50.756;6.172;2023-02-15T00:23:45;25.97;;;6.53;;
20181;SDS011;10250;50.756;6.172;2023-02-15T00:25:46;20.30;;;7.30;;
20181;SDS011;10250;50.756;6.172;2023-02-15T00:27:47;26.77;;;8.70;;
20181;SDS011;10250;50.756;6.172;2023-02-15T00:29:48;22.53;;;8.13;;
20181;SDS011;10250;50.756;6.172;2023-02-15T00:31:49;21.30;;;6.90;;
20181;SDS011;10250;50.756;6.172;2023-02-15T00:33:51;24.53;;;8.17;;
20181;SDS011;10250;50.756;6.172;2023-02-15T00:35:55;21.00;;;7.10;;
20181;SDS011;10250;50.756;6.172;2023-02-15T00:37:56;24.77;;;8.47;;
20181;SDS011;10250;50.756;6.172;2023-02-15T00:39:57;19.53;;;6.90;;
20181;SDS011;10250;50.756;6.172;2023-02-15T00:41:58;24.13;;;7.63;;
20181;SDS011;10250;50.756;6.172;2023-02-15T00:43:59;23.10;;;7.67;;
20181;SDS011;10250;50.756;6.172;2023-02-15T00:46:01;20.83;;;7.33;;
20181;SDS011;10250;50.756;6.172;2023-02-15T00:48:02;20.87;;;7.37;;
20181;SDS011;10250;50.756;6.172;2023-02-15T00:50:03;20.37;;;6.50;;
20181;SDS011;10250;50.756;6.172;2023-02-15T00:52:05;20.20;;;6.80;;
20181;SDS011;10250;50.756;6.172;2023-02-15T00:54:06;23.83;;;7.27;;
20181;SDS011;10250;50.756;6.172;2023-02-15T00:56:07;18.77;;;6.10;;
20181;SDS011;10250;50.756;6.172;2023-02-15T00:58:08;21.20;;;7.23;;
20181;SDS011;10250;50.756;6.172;2023-02-15T01:00:10;26.00;;;7.90;;
20181;SDS011;10250;50.756;6.172;2023-02-15T01:02:11;23.07;;;6.67;;
20181;SDS011;10250;50.756;6.172;2023-02-15T01:04:12;20.40;;;6.70;;
20181;SDS011;10250;50.756;6.172;2023-02-15T01:06:14;21.93;;;6.43;;
20181;SDS011;10250;50.756;6.172;2023-02-15T01:08:15;20.90;;;6.77;;
20181;SDS011;10250;50.756;6.172;2023-02-15T01:10:17;19.00;;;6.57;;
20181;SDS011;10250;50.756;6.172;2023-02-15T01:12:17;18.63;;;6.63;;
20181;SDS011;10250;50.756;6.172;2023-02-15T01:14:18;18.37;;;6.67;;
20181;SDS011;10250;50.756;6.172;2023-02-15T01:16:20;18.47;;;6.40;;
20181;SDS011;10250;50.756;6.172;2023-02-15T01:18:21;23.97;;;7.20;;
20181;SDS011;10250;50.756;6.172;2023-02-15T01:20:24;19.70;;;5.47;;
20181;SDS011;10250;50.756;6.172;2023-02-15T01:22:25;19.03;;;6.23;;
20181;SDS011;10250;50.756;6.172;2023-02-15T01:24:26;21.17;;;5.73;;
20181;SDS011;10250;50.756;6.172;2023-02-15T01:26:27;21.17;;;6.70;;
20181;SDS011;10250;50.756;6.172;2023-02-15T01:28:28;19.43;;;5.90;;
20181;SDS011;10250;50.756;6.172;2023-02-15T01:30:29;19.63;;;6.33;;
20181;SDS011;10250;50.756;6.172;2023-02-15T01:32:30;18.53;;;6.03;;
20181;SDS011;10250;50.756;6.172;2023-02-15T01:34:31;21.77;;;6.13;;
20181;SDS011;10250;50.756;6.172;2023-02-15T01:36:33;21.83;;;6.60;;
20181;SDS011;10250;50.756;6.172;2023-02-15T01:38:34;20.63;;;6.43;;
20181;SDS011;10250;50.756;6.172;2023-02-15T01:40:35;18.90;;;6.27;;
20181;SDS011;10250;50.756;6.172;2023-02-15T01:42:36;24.27;;;6.90;;
20181;SDS011;10250;50.756;6.172;2023-02-15T01:44:45;21.63;;;6.43;;
20181;SDS011;10250;50.756;6.172;2023-02-15T01:46:49;21.33;;;6.87;;
20181;SDS011;10250;50.756;6.172;2023-02-15T01:48:52;17.13;;;5.07;;
20181;SDS011;10250;50.756;6.172;2023-02-15T01:50:55;18.03;;;5.40;;
20181;SDS011;10250;50.756;6.172;2023-02-15T01:52:58;21.40;;;6.20;;
20181;SDS011;10250;50.756;6.172;2023-02-15T01:55:02;17.23;;;5.53;;
20181;SDS011;10250;50.756;6.172;2023-02-15T01:57:05;19.63;;;6.33;;
20181;SDS011;10250;50.756;6.172;2023-02-15T01:59:11;19.40;;;6.07;;
20181;SDS011;10250;50.756;6.172;2023-02-15T02:01:12;19.27;;;6.27;;
20181;SDS011;10250;50.756;6.172;2023-02-15T02:03:13;22.33;;;6.67;;
20181;SDS011;10250;50.756;6.172;2023-02-15T02:05:15;18.97;;;6.07;;
20181;SDS011;10250;50.756;6.172;2023-02-15T02:07:17;18.43;;;6.00;;
20181;SDS011;10250;50.756;6.172;2023-02-15T02:09:19;20.07;;;6.47;;
20181;SDS011;10250;50.756;6.172;2023-02-15T02:11:20;20.80;;;6.30;;
20181;SDS011;10250;50.756;6.172;2023-02-15T02:13:21;22.23;;;6.23;;
20181;SDS011;10250;50.756;6.172;2023-02-15T02:15:23;22.97;;;6.57;;
20181;SDS011;10250;50.756;6.172;2023-02-15T02:21:40;21.27;;;5.97;;
20181;SDS011;10250;50.756;6.172;2023-02-15T02:23:54;18.60;;;5.50;;
20181;SDS011;10250;50.756;6.172;2023-02-15T02:30:31;19.03;;;5.23;;
20181;SDS011;10250;50.756;6.172;2023-02-15T02:34:52;20.97;;;6.30;;
20181;SDS011;10250;50.756;6.172;2023-02-15T02:37:12;21.37;;;6.47;;
20181;SDS011;10250;50.756;6.172;2023-02-15T02:39:22;19.73;;;6.73;;
20181;SDS011;10250;50.756;6.172;2023-02-15T02:43:37;18.87;;;5.67;;
20181;SDS011;10250;50.756;6.172;2023-02-15T02:45:45;19.70;;;6.00;;
20181;SDS011;10250;50.756;6.172;2023-02-15T02:47:55;17.33;;;5.10;;
20181;SDS011;10250;50.756;6.172;2023-02-15T02:49:59;22.17;;;6.07;;
20181;SDS011;10250;50.756;6.172;2023-02-15T02:52:01;17.33;;;5.47;;
20181;SDS011;10250;50.756;6.172;2023-02-15T02:54:03;21.47;;;5.77;;
20181;SDS011;10250;50.756;6.172;2023-02-15T02:58:10;16.80;;;5.07;;
20181;SDS011;10250;50.756;6.172;2023-02-15T03:00:14;18.30;;;5.53;;
20181;SDS011;10250;50.756;6.172;2023-02-15T03:04:18;18.07;;;5.30;;
20181;SDS011;10250;50.756;6.172;2023-02-15T03:06:25;16.43;;;5.97;;
20181;SDS011;10250;50.756;6.172;2023-02-15T03:08:30;19.33;;;5.43;;
20181;SDS011;10250;50.756;6.172;2023-02-15T03:10:33;18.27;;;5.97;;
20181;SDS011;10250;50.756;6.172;2023-02-15T03:12:36;15.17;;;4.77;;
20181;SDS011;10250;50.756;6.172;2023-02-15T03:14:39;16.63;;;5.30;;
20181;SDS011;10250;50.756;6.172;2023-02-15T03:16:41;18.70;;;5.10;;
20181;SDS011;10250;50.756;6.172;2023-02-15T03:18:44;17.10;;;4.97;;
20181;SDS011;10250;50.756;6.172;2023-02-15T03:20:52;18.70;;;4.90;;
20181;SDS011;10250;50.756;6.172;2023-02-15T03:23:00;15.97;;;4.67;;
20181;SDS011;10250;50.756;6.172;2023-02-15T03:25:04;18.77;;;5.63;;
20181;SDS011;10250;50.756;6.172;2023-02-15T03:27:09;20.63;;;5.87;;
20181;SDS011;10250;50.756;6.172;2023-02-15T03:29:11;17.47;;;5.50;;
20181;SDS011;10250;50.756;6.172;2023-02-15T03:31:13;19.00;;;5.03;;
20181;SDS011;10250;50.756;6.172;2023-02-15T03:33:15;17.87;;;5.20;;
20181;SDS011;10250;50.756;6.172;2023-02-15T03:35:16;15.87;;;4.40;;
20181;SDS011;10250;50.756;6.172;2023-02-15T03:37:22;19.17;;;5.07;;
20181;SDS011;10250;50.756;6.172;2023-02-15T03:39:33;17.30;;;5.50;;
20181;SDS011;10250;50.756;6.172;2023-02-15T03:41:46;20.33;;;5.60;;
20181;SDS011;10250;50.756;6.172;2023-02-15T03:43:59;17.00;;;5.10;;
20181;SDS011;10250;50.756;6.172;2023-02-15T03:46:17;17.23;;;4.27;;
20181;SDS011;10250;50.756;6.172;2023-02-15T03:48:25;17.43;;;5.43;;
20181;SDS011;10250;50.756;6.172;2023-02-15T03:50:30;16.13;;;5.40;;
20181;SDS011;10250;50.756;6.172;2023-02-15T03:52:51;20.27;;;5.37;;
20181;SDS011;10250;50.756;6.172;2023-02-15T03:54:53;19.77;;;4.90;;
20181;SDS011;10250;50.756;6.172;2023-02-15T03:56:54;16.73;;;4.70;;
20181;SDS011;10250;50.756;6.172;2023-02-15T03:59:15;16.90;;;4.50;;
20181;SDS011;10250;50.756;6.172;2023-02-15T04:01:38;14.03;;;3.97;;
20181;SDS011;10250;50.756;6.172;2023-02-15T04:04:03;16.27;;;4.50;;
20181;SDS011;10250;50.756;6.172;2023-02-15T04:06:08;16.13;;;4.83;;
20181;SDS011;10250;50.756;6.172;2023-02-15T04:08:09;14.03;;;4.37;;
20181;SDS011;10250;50.756;6.172;2023-02-15T04:10:10;15.33;;;4.53;;
20181;SDS011;10250;50.756;6.172;2023-02-15T04:12:30;15.20;;;4.10;;
20181;SDS011;10250;50.756;6.172;2023-02-15T04:14:31;15.37;;;4.63;;
20181;SDS011;10250;50.756;6.172;2023-02-15T04:16:50;15.53;;;4.50;;
20181;SDS011;10250;50.756;6.172;2023-02-15T04:18:51;17.10;;;4.43;;
20181;SDS011;10250;50.756;6.172;2023-02-15T04:21:11;17.27;;;3.87;;
20181;SDS011;10250;50.756;6.172;2023-02-15T04:23:31;14.07;;;4.13;;
20181;SDS011;10250;50.756;6.172;2023-02-15T04:25:50;14.93;;;4.10;;
20181;SDS011;10250;50.756;6.172;2023-02-15T04:27:53;14.20;;;4.57;;
20181;SDS011;10250;50.756;6.172;2023-02-15T04:29:54;15.13;;;4.23;;
20181;SDS011;10250;50.756;6.172;2023-02-15T04:31:55;14.30;;;4.27;;
20181;SDS011;10250;50.756;6.172;2023-02-15T04:33:56;20.00;;;4.13;;
20181;SDS011;10250;50.756;6.172;2023-02-15T04:35:57;15.57;;;4.33;;
20181;SDS011;10250;50.756;6.172;2023-02-15T04:37:58;16.77;;;4.57;;
20181;SDS011;10250;50.756;6.172;2023-02-15T04:39:59;12.80;;;4.23;;
20181;SDS011;10250;50.756;6.172;2023-02-15T04:42:00;12.77;;;3.37;;
20181;SDS011;10250;50.756;6.172;2023-02-15T04:44:01;10.13;;;3.10;;
20181;SDS011;10250;50.756;6.172;2023-02-15T04:46:02;13.73;;;3.13;;
20181;SDS011;10250;50.756;6.172;2023-02-15T04:48:04;11.60;;;3.37;;
20181;SDS011;10250;50.756;6.172;2023-02-15T04:50:05;12.70;;;3.40;;
20181;SDS011;10250;50.756;6.172;2023-02-15T04:52:06;11.93;;;3.00;;
20181;SDS011;10250;50.756;6.172;2023-02-15T04:54:07;11.40;;;2.87;;
20181;SDS011;10250;50.756;6.172;2023-02-15T04:56:08;12.20;;;3.50;;
20181;SDS011;10250;50.756;6.172;2023-02-15T04:58:09;12.27;;;2.93;;
20181;SDS011;10250;50.756;6.172;2023-02-15T05:00:10;11.73;;;2.70;;
20181;SDS011;10250;50.756;6.172;2023-02-15T05:02:11;15.53;;;3.67;;
20181;SDS011;10250;50.756;6.172;2023-02-15T05:04:12;11.53;;;3.07;;
20181;SDS011;10250;50.756;6.172;2023-02-15T05:06:13;13.40;;;3.33;;
20181;SDS011;10250;50.756;6.172;2023-02-15T05:08:14;12.47;;;3.00;;
20181;SDS011;10250;50.756;6.172;2023-02-15T05:10:15;12.97;;;2.67;;
20181;SDS011;10250;50.756;6.172;2023-02-15T05:12:16;12.63;;;3.10;;
20181;SDS011;10250;50.756;6.172;2023-02-15T05:14:17;13.83;;;3.20;;
20181;SDS011;10250;50.756;6.172;2023-02-15T05:16:18;12.60;;;2.80;;
20181;SDS011;10250;50.756;6.172;2023-02-15T05:18:20;11.23;;;2.90;;
20181;SDS011;10250;50.756;6.172;2023-02-15T05:20:21;12.13;;;2.73;;
20181;SDS011;10250;50.756;6.172;2023-02-15T05:22:22;10.60;;;2.40;;
20181;SDS011;10250;50.756;6.172;2023-02-15T05:24:23;15.23;;;3.10;;
20181;SDS011;10250;50.756;6.172;2023-02-15T05:26:43;12.63;;;3.43;;
20181;SDS011;10250;50.756;6.172;2023-02-15T05:29:03;10.20;;;2.93;;
20181;SDS011;10250;50.756;6.172;2023-02-15T05:31:08;9.90;;;2.40;;
20181;SDS011;10250;50.756;6.172;2023-02-15T05:33:10;9.37;;;2.67;;
20181;SDS011;10250;50.756;6.172;2023-02-15T05:35:12;12.00;;;2.77;;
20181;SDS011;10250;50.756;6.172;2023-02-15T05:37:14;10.77;;;2.90;;
20181;SDS011;10250;50.756;6.172;2023-02-15T05:39:15;10.40;;;2.90;;
20181;SDS011;10250;50.756;6.172;2023-02-15T05:41:16;9.20;;;2.70;;
20181;SDS011;10250;50.756;6.172;2023-02-15T05:43:17;12.50;;;3.03;;
20181;SDS011;10250;50.756;6.172;2023-02-15T05:45:18;13.47;;;3.27;;
20181;SDS011;10250;50.756;6.172;2023-02-15T05:47:19;10.30;;;2.73;;
20181;SDS011;10250;50.756;6.172;2023-02-15T05:49:20;10.97;;;3.00;;
20181;SDS011;10250;50.756;6.172;2023-02-15T05:51:21;11.77;;;2.83;;
20181;SDS011;10250;50.756;6.172;2023-02-15T05:53:22;14.73;;;3.30;;
20181;SDS011;10250;50.756;6.172;2023-02-15T05:55:23;11.50;;;3.37;;
20181;SDS011;10250;50.756;6.172;2023-02-15T05:57:24;9.70;;;3.00;;
20181;SDS011;10250;50.756;6.172;2023-02-15T05:59:25;11.47;;;2.70;;
20181;SDS011;10250;50.756;6.172;2023-02-15T06:01:26;12.60;;;2.83;;
20181;SDS011;10250;50.756;6.172;2023-02-15T06:03:27;11.50;;;2.77;;
20181;SDS011;10250;50.756;6.172;2023-02-15T06:05:28;10.53;;;2.33;;
20181;SDS011;10250;50.756;6.172;2023-02-15T06:07:29;9.90;;;3.00;;
20181;SDS011;10250;50.756;6.172;2023-02-15T06:09:30;8.93;;;2.30;;
20181;SDS011;10250;50.756;6.172;2023-02-15T06:11:31;8.73;;;2.57;;
20181;SDS011;10250;50.756;6.172;2023-02-15T06:13:32;9.73;;;2.70;;
20181;SDS011;10250;50.756;6.172;2023-02-15T06:15:33;10.43;;;2.60;;
20181;SDS011;10250;50.756;6.172;2023-02-15T06:17:34;10.17;;;2.40;;
20181;SDS011;10250;50.756;6.172;2023-02-15T06:19:35;10.53;;;2.70;;
20181;SDS011;10250;50.756;6.172;2023-02-15T06:21:36;10.10;;;2.70;;
20181;SDS011;10250;50.756;6.172;2023-02-15T06:23:37;9.27;;;2.80;;
20181;SDS011;10250;50.756;6.172;2023-02-15T06:25:38;11.77;;;2.23;;
20181;SDS011;10250;50.756;6.172;2023-02-15T06:27:42;8.37;;;2.10;;
20181;SDS011;10250;50.756;6.172;2023-02-15T06:29:43;10.30;;;2.77;;
20181;SDS011;10250;50.756;6.172;2023-02-15T06:31:44;8.13;;;2.30;;
20181;SDS011;10250;50.756;6.172;2023-02-15T06:33:45;7.97;;;1.90;;
20181;SDS011;10250;50.756;6.172;2023-02-15T06:35:46;7.70;;;2.40;;
20181;SDS011;10250;50.756;6.172;2023-02-15T06:37:47;8.67;;;2.23;;
20181;SDS011;10250;50.756;6.172;2023-02-15T06:39:48;10.37;;;2.37;;
20181;SDS011;10250;50.756;6.172;2023-02-15T06:41:49;8.40;;;2.20;;
20181;SDS011;10250;50.756;6.172;2023-02-15T06:43:50;8.93;;;2.43;;
20181;SDS011;10250;50.756;6.172;2023-02-15T06:45:51;9.23;;;2.53;;
20181;SDS011;10250;50.756;6.172;2023-02-15T06:47:52;11.93;;;2.70;;
20181;SDS011;10250;50.756;6.172;2023-02-15T06:49:53;10.33;;;2.63;;
20181;SDS011;10250;50.756;6.172;2023-02-15T06:51:54;10.40;;;2.60;;
20181;SDS011;10250;50.756;6.172;2023-02-15T06:53:55;9.87;;;2.30;;
20181;SDS011;10250;50.756;6.172;2023-02-15T06:56:00;11.67;;;2.73;;
20181;SDS011;10250;50.756;6.172;2023-02-15T06:58:02;8.10;;;2.20;;
20181;SDS011;10250;50.756;6.172;2023-02-15T07:00:03;9.20;;;2.57;;
20181;SDS011;10250;50.756;6.172;2023-02-15T07:02:05;9.90;;;2.60;;
20181;SDS011;10250;50.756;6.172;2023-02-15T07:04:06;10.73;;;2.67;;
20181;SDS011;10250;50.756;6.172;2023-02-15T07:06:07;13.37;;;3.30;;
20181;SDS011;10250;50.756;6.172;2023-02-15T07:08:08;10.53;;;3.03;;
20181;SDS011;10250;50.756;6.172;2023-02-15T07:10:09;13.60;;;3.53;;
20181;SDS011;10250;50.756;6.172;2023-02-15T07:12:10;12.20;;;3.23;;
20181;SDS011;10250;50.756;6.172;2023-02-15T07:14:30;12.00;;;2.80;;
20181;SDS011;10250;50.756;6.172;2023-02-15T07:16:31;11.37;;;2.87;;
20181;SDS011;10250;50.756;6.172;2023-02-15T07:18:32;11.30;;;3.13;;
20181;SDS011;10250;50.756;6.172;2023-02-15T07:20:33;11.03;;;3.40;;
20181;SDS011;10250;50.756;6.172;2023-02-15T07:22:35;9.17;;;3.00;;
20181;SDS011;10250;50.756;6.172;2023-02-15T07:24:37;14.83;;;3.50;;
20181;SDS011;10250;50.756;6.172;2023-02-15T07:26:38;11.20;;;3.07;;
20181;SDS011;10250;50.756;6.172;2023-02-15T07:28:39;11.00;;;2.87;;
20181;SDS011;10250;50.756;6.172;2023-02-15T07:30:39;11.80;;;3.37;;
20181;SDS011;10250;50.756;6.172;2023-02-15T07:32:40;13.63;;;3.77;;
20181;SDS011;10250;50.756;6.172;2023-02-15T07:35:00;12.53;;;3.13;;
20181;SDS011;10250;50.756;6.172;2023-02-15T07:37:01;11.80;;;2.83;;
20181;SDS011;10250;50.756;6.172;2023-02-15T07:39:02;11.90;;;2.93;;
20181;SDS011;10250;50.756;6.172;2023-02-15T07:41:04;12.50;;;3.37;;
20181;SDS011;10250;50.756;6.172;2023-02-15T07:43:05;10.83;;;3.37;;
20181;SDS011;10250;50.756;6.172;2023-02-15T07:45:06;10.83;;;3.07;;
20181;SDS011;10250;50.756;6.172;2023-02-15T07:47:07;11.17;;;3.10;;
20181;SDS011;10250;50.756;6.172;2023-02-15T07:49:08;10.93;;;3.10;;
20181;SDS011;10250;50.756;6.172;2023-02-15T07:51:10;12.93;;;3.17;;
20181;SDS011;10250;50.756;6.172;2023-02-15T07:53:12;12.97;;;3.37;;
20181;SDS011;10250;50.756;6.172;2023-02-15T07:55:13;13.37;;;3.50;;
20181;SDS011;10250;50.756;6.172;2023-02-15T07:57:14;11.77;;;3.23;;
20181;SDS011;10250;50.756;6.172;2023-02-15T07:59:15;11.33;;;3.37;;
20181;SDS011;10250;50.756;6.172;2023-02-15T08:01:16;15.53;;;3.90;;
20181;SDS011;10250;50.756;6.172;2023-02-15T08:03:17;15.73;;;3.80;;
20181;SDS011;10250;50.756;6.172;2023-02-15T08:05:18;11.87;;;3.03;;
20181;SDS011;10250;50.756;6.172;2023-02-15T08:07:19;12.83;;;3.10;;
20181;SDS011;10250;50.756;6.172;2023-02-15T08:09:21;13.63;;;3.57;;
20181;SDS011;10250;50.756;6.172;2023-02-15T08:11:23;15.73;;;4.03;;
20181;SDS011;10250;50.756;6.172;2023-02-15T08:13:36;15.03;;;3.80;;
20181;SDS011;10250;50.756;6.172;2023-02-15T08:15:53;15.37;;;3.73;;
20181;SDS011;10250;50.756;6.172;2023-02-15T08:17:54;11.93;;;3.10;;
20181;SDS011;10250;50.756;6.172;2023-02-15T08:19:55;11.60;;;3.37;;
20181;SDS011;10250;50.756;6.172;2023-02-15T08:22:00;14.87;;;3.90;;
20181;SDS011;10250;50.756;6.172;2023-02-15T08:24:01;12.87;;;3.40;;
20181;SDS011;10250;50.756;6.172;2023-02-15T08:26:02;16.23;;;2.90;;
20181;SDS011;10250;50.756;6.172;2023-02-15T08:28:04;10.10;;;2.77;;
20181;SDS011;10250;50.756;6.172;2023-02-15T08:30:05;13.40;;;3.33;;
20181;SDS011;10250;50.756;6.172;2023-02-15T08:32:07;13.43;;;3.37;;
20181;SDS011;10250;50.756;6.172;2023-02-15T08:34:09;14.43;;;3.77;;
20181;SDS011;10250;50.756;6.172;2023-02-15T08:36:12;12.03;;;3.20;;
20181;SDS011;10250;50.756;6.172;2023-02-15T08:38:13;13.87;;;3.83;;
20181;SDS011;10250;50.756;6.172;2023-02-15T08:40:15;16.03;;;4.40;;
20181;SDS011;10250;50.756;6.172;2023-02-15T08:42:16;14.47;;;4.20;;
20181;SDS011;10250;50.756;6.172;2023-02-15T08:44:18;14.03;;;3.50;;
20181;SDS011;10250;50.756;6.172;2023-02-15T08:46:19;14.83;;;4.17;;
20181;SDS011;10250;50.756;6.172;2023-02-15T08:48:20;17.03;;;4.07;;
20181;SDS011;10250;50.756;6.172;2023-02-15T08:50:22;14.10;;;3.83;;
20181;SDS011;10250;50.756;6.172;2023-02-15T08:52:23;12.87;;;3.87;;
20181;SDS011;10250;50.756;6.172;2023-02-15T08:54:24;17.33;;;4.13;;
20181;SDS011;10250;50.756;6.172;2023-02-15T08:56:26;14.73;;;3.97;;
20181;SDS011;10250;50.756;6.172;2023-02-15T08:58:28;13.87;;;3.73;;
20181;SDS011;10250;50.756;6.172;2023-02-15T09:00:29;15.93;;;4.10;;
20181;SDS011;10250;50.756;6.172;2023-02-15T09:02:31;14.50;;;3.67;;
20181;SDS011;10250;50.756;6.172;2023-02-15T09:04:32;13.90;;;3.73;;
20181;SDS011;10250;50.756;6.172;2023-02-15T09:06:33;12.77;;;3.13;;
20181;SDS011;10250;50.756;6.172;2023-02-15T09:08:34;13.20;;;3.63;;
20181;SDS011;10250;50.756;6.172;2023-02-15T09:10:35;11.13;;;3.47;;
20181;SDS011;10250;50.756;6.172;2023-02-15T09:12:36;14.23;;;3.63;;
20181;SDS011;10250;50.756;6.172;2023-02-15T09:14:37;13.33;;;3.67;;
20181;SDS011;10250;50.756;6.172;2023-02-15T09:16:38;15.43;;;3.37;;
20181;SDS011;10250;50.756;6.172;2023-02-15T09:18:39;12.80;;;3.23;;
20181;SDS011;10250;50.756;6.172;2023-02-15T09:20:40;18.00;;;3.60;;
20181;SDS011;10250;50.756;6.172;2023-02-15T09:22:41;13.53;;;3.93;;
20181;SDS011;10250;50.756;6.172;2023-02-15T09:24:42;16.50;;;3.87;;
20181;SDS011;10250;50.756;6.172;2023-02-15T09:26:44;13.87;;;3.47;;
20181;SDS011;10250;50.756;6.172;2023-02-15T09:28:46;15.07;;;3.87;;
20181;SDS011;10250;50.756;6.172;2023-02-15T09:30:48;13.17;;;3.20;;
20181;SDS011;10250;50.756;6.172;2023-02-15T09:32:49;13.23;;;3.37;;
20181;SDS011;10250;50.756;6.172;2023-02-15T09:34:50;17.40;;;4.17;;
20181;SDS011;10250;50.756;6.172;2023-02-15T09:36:51;13.27;;;3.40;;
20181;SDS011;10250;50.756;6.172;2023-02-15T09:39:15;14.47;;;3.67;;
20181;SDS011;10250;50.756;6.172;2023-02-15T09:43:22;14.70;;;3.57;;
20181;SDS011;10250;50.756;6.172;2023-02-15T09:45:45;11.40;;;3.27;;
20181;SDS011;10250;50.756;6.172;2023-02-15T09:48:05;10.33;;;2.93;;
20181;SDS011;10250;50.756;6.172;2023-02-15T09:54:23;13.47;;;3.13;;
20181;SDS011;10250;50.756;6.172;2023-02-15T09:56:34;14.27;;;3.40;;
20181;SDS011;10250;50.756;6.172;2023-02-15T10:03:04;14.63;;;3.50;;
20181;SDS011;10250;50.756;6.172;2023-02-15T10:06:13;13.47;;;2.87;;
20181;SDS011;10250;50.756;6.172;2023-02-15T10:18:49;14.03;;;3.67;;
20181;SDS011;10250;50.756;6.172;2023-02-15T10:20:56;14.53;;;3.77;;
20181;SDS011;10250;50.756;6.172;2023-02-15T10:27:22;16.57;;;3.93;;
20181;SDS011;10250;50.756;6.172;2023-02-15T10:31:28;13.30;;;3.00;;
20181;SDS011;10250;50.756;6.172;2023-02-15T10:33:35;10.23;;;2.53;;
20181;SDS011;10250;50.756;6.172;2023-02-15T10:38:19;10.50;;;3.00;;
20181;SDS011;10250;50.756;6.172;2023-02-15T10:42:47;11.80;;;2.60;;
20181;SDS011;10250;50.756;6.172;2023-02-15T10:49:10;12.30;;;3.13;;
20181;SDS011;10250;50.756;6.172;2023-02-15T10:58:07;13.43;;;3.17;;
20181;SDS011;10250;50.756;6.172;2023-02-15T11:00:58;12.97;;;3.43;;
20181;SDS011;10250;50.756;6.172;2023-02-15T11:07:00;12.23;;;2.67;;
20181;SDS011;10250;50.756;6.172;2023-02-15T11:09:03;15.07;;;3.80;;
20181;SDS011;10250;50.756;6.172;2023-02-15T11:11:07;13.07;;;3.23;;
20181;SDS011;10250;50.756;6.172;2023-02-15T11:13:11;11.43;;;2.83;;
20181;SDS011;10250;50.756;6.172;2023-02-15T11:15:19;12.73;;;3.10;;
20181;SDS011;10250;50.756;6.172;2023-02-15T11:17:25;14.90;;;3.83;;
20181;SDS011;10250;50.756;6.172;2023-02-15T11:21:30;11.73;;;2.90;;
20181;SDS011;10250;50.756;6.172;2023-02-15T11:23:33;12.50;;;3.30;;
20181;SDS011;10250;50.756;6.172;2023-02-15T11:25:35;11.47;;;2.37;;
20181;SDS011;10250;50.756;6.172;2023-02-15T11:27:38;10.93;;;2.53;;
20181;SDS011;10250;50.756;6.172;2023-02-15T11:31:44;11.37;;;2.40;;
20181;SDS011;10250;50.756;6.172;2023-02-15T11:33:56;10.87;;;2.53;;
20181;SDS011;10250;50.756;6.172;2023-02-15T11:38:02;13.70;;;3.00;;
20181;SDS011;10250;50.756;6.172;2023-02-15T11:40:51;10.43;;;2.90;;
20181;SDS011;10250;50.756;6.172;2023-02-15T11:42:26;14.83;;;3.17;;
20181;SDS011;10250;50.756;6.172;2023-02-15T11:44:30;13.90;;;3.00;;
20181;SDS011;10250;50.756;6.172;2023-02-15T11:46:32;12.70;;;2.90;;
20181;SDS011;10250;50.756;6.172;2023-02-15T11:48:33;9.63;;;2.57;;
20181;SDS011;10250;50.756;6.172;2023-02-15T11:50:35;10.27;;;2.57;;
20181;SDS011;10250;50.756;6.172;2023-02-15T11:52:36;10.37;;;2.77;;
20181;SDS011;10250;50.756;6.172;2023-02-15T11:54:40;12.77;;;3.10;;
20181;SDS011;10250;50.756;6.172;2023-02-15T11:56:42;12.30;;;2.83;;
20181;SDS011;10250;50.756;6.172;2023-02-15T11:58:44;13.70;;;3.03;;
20181;SDS011;10250;50.756;6.172;2023-02-15T12:00:46;13.43;;;3.13;;
20181;SDS011;10250;50.756;6.172;2023-02-15T12:02:50;11.97;;;2.90;;
20181;SDS011;10250;50.756;6.172;2023-02-15T12:04:56;13.30;;;2.63;;
20181;SDS011;10250;50.756;6.172;2023-02-15T12:09:03;14.40;;;3.20;;
20181;SDS011;10250;50.756;6.172;2023-02-15T12:11:09;12.90;;;3.20;;
20181;SDS011;10250;50.756;6.172;2023-02-15T12:13:16;12.73;;;3.13;;
20181;SDS011;10250;50.756;6.172;2023-02-15T12:15:17;15.63;;;3.90;;
20181;SDS011;10250;50.756;6.172;2023-02-15T12:19:38;14.07;;;3.73;;
20181;SDS011;10250;50.756;6.172;2023-02-15T12:21:40;13.47;;;3.77;;
20181;SDS011;10250;50.756;6.172;2023-02-15T12:23:48;13.80;;;3.17;;
20181;SDS011;10250;50.756;6.172;2023-02-15T12:25:51;14.47;;;3.50;;
20181;SDS011;10250;50.756;6.172;2023-02-15T12:27:54;14.47;;;3.90;;
20181;SDS011;10250;50.756;6.172;2023-02-15T12:30:16;13.40;;;3.43;;
20181;SDS011;10250;50.756;6.172;2023-02-15T12:32:22;17.83;;;3.70;;
20181;SDS011;10250;50.756;6.172;2023-02-15T12:34:29;14.90;;;3.90;;
20181;SDS011;10250;50.756;6.172;2023-02-15T12:36:42;13.27;;;3.20;;
20181;SDS011;10250;50.756;6.172;2023-02-15T12:39:02;11.77;;;3.10;;
20181;SDS011;10250;50.756;6.172;2023-02-15T12:43:31;15.07;;;4.53;;
20181;SDS011;10250;50.756;6.172;2023-02-15T12:45:33;13.37;;;3.53;;
20181;SDS011;10250;50.756;6.172;2023-02-15T12:47:34;11.40;;;2.73;;
20181;SDS011;10250;50.756;6.172;2023-02-15T12:49:36;14.63;;;4.20;;
20181;SDS011;10250;50.756;6.172;2023-02-15T12:53:54;10.80;;;2.90;;
20181;SDS011;10250;50.756;6.172;2023-02-15T12:55:56;14.13;;;3.80;;
20181;SDS011;10250;50.756;6.172;2023-02-15T12:58:16;13.97;;;3.63;;
20181;SDS011;10250;50.756;6.172;2023-02-15T13:02:21;14.97;;;3.77;;
20181;SDS011;10250;50.756;6.172;2023-02-15T13:04:24;12.33;;;3.30;;
20181;SDS011;10250;50.756;6.172;2023-02-15T13:06:27;11.43;;;2.83;;
20181;SDS011;10250;50.756;6.172;2023-02-15T13:08:30;16.80;;;3.97;;
20181;SDS011;10250;50.756;6.172;2023-02-15T13:10:36;15.60;;;4.00;;
20181;SDS011;10250;50.756;6.172;2023-02-15T13:12:37;16.93;;;4.03;;
20181;SDS011;10250;50.756;6.172;2023-02-15T13:14:38;16.47;;;4.47;;
20181;SDS011;10250;50.756;6.172;2023-02-15T13:16:44;16.50;;;4.60;;
20181;SDS011;10250;50.756;6.172;2023-02-15T13:18:46;15.70;;;4.33;;
20181;SDS011;10250;50.756;6.172;2023-02-15T13:20:47;15.30;;;4.20;;
20181;SDS011;10250;50.756;6.172;2023-02-15T13:22:49;17.90;;;4.93;;
20181;SDS011;10250;50.756;6.172;2023-02-15T13:24:59;15.33;;;4.67;;
20181;SDS011;10250;50.756;6.172;2023-02-15T13:27:00;14.63;;;4.00;;
20181;SDS011;10250;50.756;6.172;2023-02-15T13:29:06;14.47;;;4.13;;
20181;SDS011;10250;50.756;6.172;2023-02-15T13:31:13;16.10;;;4.50;;
20181;SDS011;10250;50.756;6.172;2023-02-15T13:33:23;16.33;;;4.80;;
20181;SDS011;10250;50.756;6.172;2023-02-15T13:35:26;15.53;;;4.93;;
20181;SDS011;10250;50.756;6.172;2023-02-15T13:42:00;17.10;;;4.80;;
20181;SDS011;10250;50.756;6.172;2023-02-15T13:46:15;14.00;;;4.17;;